.
WxDataArchive / Data Records for 2015-12-11
2015-12-10 December 2015 2015-12-12

Data Records for Friday, 11 December 2015

Time	Temp	Chill	HIndex	Humid	Dewpt	 Wind 	HiWind	WindDir	Rain 	Barom
-----	----	-----	------	-----	-----	------	------	-------	-----	-----
00:00	47.7	47.7	47.7	85	43.4	0	1	248	0.00	29.659 
00:05	47.6	47.6	47.6	85	43.3	0	1	248	0.00	29.659 
00:10	47.3	47.3	47.3	86	43.3	0	1	248	0.00	29.659 
00:15	47.1	47.1	47.1	86	43.1	0	1	248	0.00	29.661 
00:20	46.8	46.8	46.8	86	42.8	0	1	248	0.00	29.661 
00:25	46.8	46.8	46.8	87	43.1	0	1	248	0.00	29.661 
00:30	46.7	46.7	46.7	87	43.0	0	1	248	0.00	29.661 
00:35	46.5	46.5	46.5	87	42.8	0	1	248	0.00	29.661 
00:40	46.5	46.5	46.5	88	43.1	0	1	248	0.00	29.661 
00:45	46.5	46.5	46.5	88	43.1	0	2	248	0.00	29.664 
00:50	46.4	46.4	46.4	88	43.0	0	1	248	0.00	29.664 
00:55	46.2	46.2	46.2	88	42.8	0	1	248	0.00	29.664 
01:00	46.1	46.1	46.1	88	42.7	0	1	248	0.00	29.665 
01:05	46.1	46.1	46.1	88	42.7	0	2	248	0.00	29.665 
01:10	46.0	46.0	46.0	88	42.6	0	2	248	0.00	29.665 
01:15	46.0	46.0	46.0	89	42.9	0	2	248	0.00	29.667 
01:20	45.8	45.8	45.8	89	42.7	0	2	248	0.00	29.667 
01:25	45.8	45.8	45.8	89	42.7	0	1	248	0.00	29.667 
01:30	45.8	45.8	45.8	89	42.7	0	2	248	0.00	29.670 
01:35	45.8	45.8	45.8	89	42.7	0	3	248	0.00	29.670 
01:40	45.8	45.8	45.8	89	42.7	0	3	248	0.00	29.670 
01:45	45.8	45.8	45.8	90	43.0	0	3	248	0.00	29.671 
01:50	45.8	45.8	45.8	90	43.0	0	3	248	0.00	29.671 
01:55	45.7	45.7	45.7	90	42.9	0	2	248	0.00	29.671 
02:00	45.8	45.8	45.8	90	43.0	0	3	248	0.00	29.674 
02:05	45.8	45.8	45.8	90	43.0	0	3	248	0.00	29.674 
02:10	45.8	45.8	45.8	90	43.0	0	2	248	0.00	29.674 
02:15	45.8	45.8	45.8	90	43.0	0	2	248	0.00	29.674 
02:20	45.8	45.8	45.8	90	43.0	0	3	248	0.00	29.674 
02:25	45.8	45.8	45.8	90	43.0	0	2	248	0.00	29.674 
02:30	45.8	45.8	45.8	90	43.0	0	1	248	0.00	29.676 
02:35	45.8	45.8	45.8	90	43.0	0	3	248	0.00	29.676 
02:40	45.8	45.8	45.8	89	42.7	0	1	248	0.00	29.676 
02:45	45.7	45.7	45.7	90	42.9	0	3	248	0.00	29.688 
02:50	45.8	45.8	45.8	90	43.0	0	4	248	0.00	29.688 
02:55	45.8	45.8	45.8	89	42.7	0	3	248	0.00	29.688 
03:00	45.8	45.8	45.8	89	42.7	0	2	248	0.00	29.691 
03:05	45.8	45.8	45.8	89	42.7	0	2	248	0.00	29.691 
03:10	45.8	45.8	45.8	89	42.7	1	3	248	0.00	29.691 
03:15	46.0	46.0	46.0	88	42.6	0	4	248	0.00	29.700 
03:20	46.0	46.0	46.0	88	42.6	0	2	248	0.00	29.700 
03:25	46.0	46.0	46.0	88	42.6	0	3	248	0.00	29.700 
03:30	46.0	46.0	46.0	87	42.4	0	1	248	0.00	29.703 
03:35	45.8	45.8	45.8	87	42.2	0	1	248	0.00	29.703 
03:40	45.7	45.7	45.7	87	42.1	0	2	248	0.00	29.703 
03:45	45.7	45.7	45.7	87	42.1	0	2	248	0.00	29.707 
03:50	45.7	45.7	45.7	87	42.1	0	4	248	0.00	29.707 
03:55	45.5	45.5	45.5	87	41.9	0	2	248	0.00	29.707 
04:00	45.5	45.5	45.5	87	41.9	0	1	248	0.00	29.707 
04:05	45.5	45.5	45.5	87	41.9	0	2	248	0.00	29.707 
04:10	45.5	45.5	45.5	87	41.9	0	4	248	0.00	29.707 
04:15	45.4	45.4	45.4	87	41.8	0	2	248	0.00	29.706 
04:20	45.2	45.2	45.2	87	41.6	0	2	248	0.00	29.706 
04:25	45.1	45.1	45.1	87	41.5	0	2	248	0.00	29.706 
04:30	44.9	44.9	44.9	87	41.3	0	1	248	0.00	29.700 
04:35	44.8	44.8	44.8	88	41.5	0	2	248	0.00	29.700 
04:40	44.5	44.5	44.5	88	41.2	0	1	248	0.00	29.700 
04:45	44.3	44.3	44.3	88	41.0	0	1	248	0.00	29.694 
04:50	44.2	44.2	44.2	88	40.9	0	1	248	0.00	29.694 
04:55	44.1	44.1	44.1	88	40.8	0	1	248	0.00	29.694 
05:00	43.9	43.9	43.9	88	40.6	0	2	248	0.00	29.695 
05:05	43.9	43.9	43.9	88	40.6	0	1	248	0.00	29.695 
05:10	43.8	43.8	43.8	89	40.8	0	1	248	0.00	29.695 
05:15	43.6	43.6	43.6	89	40.6	0	1	248	0.00	29.698 
05:20	43.6	43.6	43.6	89	40.6	0	2	248	0.00	29.698 
05:25	43.5	43.5	43.5	89	40.5	0	1	248	0.00	29.698 
05:30	43.5	43.5	43.5	89	40.5	0	2	248	0.00	29.700 
05:35	43.6	43.6	43.6	89	40.6	0	2	248	0.00	29.700 
05:40	43.6	43.6	43.6	89	40.6	0	1	248	0.00	29.700 
05:45	43.6	43.6	43.6	89	40.6	0	1	248	0.00	29.707 
05:50	43.5	43.5	43.5	89	40.5	0	1	248	0.00	29.707 
05:55	43.5	43.5	43.5	89	40.5	0	1	248	0.00	29.707 
06:00	43.5	43.5	43.5	89	40.5	0	2	248	0.00	29.722 
06:05	43.5	43.5	43.5	89	40.5	0	2	248	0.00	29.722 
06:10	43.6	43.6	43.6	88	40.3	0	4	248	0.00	29.722 
06:15	43.6	43.6	43.6	88	40.3	0	2	248	0.00	29.726 
06:20	43.6	43.6	43.6	88	40.3	0	3	248	0.00	29.726 
06:25	43.5	43.5	43.5	88	40.2	0	3	248	0.00	29.726 
06:30	43.5	43.5	43.5	88	40.2	0	2	248	0.00	29.725 
06:35	43.3	43.3	43.3	88	40.0	0	2	248	0.00	29.725 
06:40	43.2	43.2	43.2	88	39.9	0	3	248	0.00	29.725 
06:45	43.2	43.2	43.2	88	39.9	0	2	248	0.00	29.728 
06:50	43.1	43.1	43.1	88	39.8	0	2	248	0.00	29.728 
06:55	43.1	43.1	43.1	88	39.8	0	2	248	0.00	29.728 
07:00	43.1	43.1	43.1	88	39.8	0	2	248	0.00	29.734 
07:05	42.9	42.9	42.9	88	39.6	0	2	248	0.00	29.734 
07:10	42.8	42.8	42.8	88	39.5	1	3	248	0.00	29.734 
07:15	42.8	42.8	42.8	88	39.5	0	3	248	0.00	29.746 
07:20	42.8	42.8	42.8	88	39.5	0	2	248	0.00	29.746 
07:25	42.8	42.8	42.8	89	39.8	0	3	248	0.00	29.746 
07:30	42.8	42.8	42.8	89	39.8	0	2	248	0.00	29.756 
07:35	42.8	42.8	42.8	89	39.8	0	3	248	0.00	29.756 
07:40	42.8	42.8	42.8	89	39.8	1	5	248	0.00	29.756 
07:45	42.8	42.8	42.8	89	39.8	1	4	248	0.00	29.758 
07:50	42.8	42.8	42.8	89	39.8	0	3	248	0.00	29.758 
07:55	42.8	42.8	42.8	89	39.8	0	3	248	0.00	29.758 
08:00	42.8	42.8	42.8	89	39.8	0	3	248	0.00	29.759 
08:05	42.9	42.9	42.9	89	39.9	0	3	248	0.00	29.759 
08:10	42.8	42.8	42.8	89	39.8	0	2	248	0.00	29.759 
08:15	42.8	42.8	42.8	89	39.8	0	3	248	0.00	29.760 
08:20	42.9	42.9	42.9	89	39.9	0	2	248	0.00	29.760 
08:25	43.1	43.1	43.1	88	39.8	0	2	248	0.00	29.760 
08:30	43.1	43.1	43.1	88	39.8	0	2	248	0.00	29.761 
08:35	43.2	43.2	43.2	88	39.9	0	2	248	0.00	29.761 
08:40	43.2	43.2	43.2	88	39.9	0	2	248	0.00	29.761 
08:45	43.3	43.3	43.3	87	39.7	0	2	248	0.00	29.766 
08:50	43.3	43.3	43.3	87	39.7	1	3	248	0.00	29.766 
08:55	43.5	43.5	43.5	87	39.9	0	2	248	0.00	29.766 
09:00	43.5	43.5	43.5	86	39.6	0	3	248	0.00	29.772 
09:05	43.6	43.6	43.6	86	39.7	1	3	248	0.00	29.772 
09:10	43.6	43.6	43.6	86	39.7	1	3	248	0.00	29.772 
09:15	43.9	43.9	43.9	86	40.0	1	4	248	0.00	29.778 
09:20	43.9	43.9	43.9	86	40.0	0	3	248	0.00	29.778 
09:25	44.1	44.1	44.1	85	39.9	1	4	248	0.00	29.778 
09:30	44.1	44.1	44.1	85	39.9	0	1	315	0.00	29.801 
09:35	44.2	44.2	44.2	84	39.7	0	1	315	0.00	29.801 
09:40	44.5	44.5	44.5	84	40.0	1	3	315	0.00	29.801 
09:45	44.6	44.6	44.6	84	40.1	1	4	315	0.00	29.802 
09:50	44.9	44.9	44.9	83	40.1	1	3	315	0.00	29.802 
09:55	45.1	45.1	45.1	83	40.3	1	3	315	0.00	29.802 
10:00	45.4	45.4	45.4	83	40.5	0	3	315	0.00	29.805 
10:05	45.7	45.7	45.7	82	40.5	0	3	315	0.00	29.805 
10:10	46.0	46.0	46.0	81	40.5	2	7	270	0.00	29.805 
10:15	46.2	46.2	46.2	81	40.7	0	4	248	0.00	29.811 
10:20	46.5	46.5	46.5	80	40.7	1	5	248	0.00	29.811 
10:25	47.0	47.0	47.0	79	40.8	1	3	248	0.00	29.811 
10:30	47.4	47.4	47.4	78	40.9	1	3	248	0.00	29.819 
10:35	47.9	47.9	47.9	77	41.0	1	4	248	0.00	29.819 
10:40	48.3	48.3	48.3	76	41.1	0	2	248	0.00	29.819 
10:45	48.6	48.6	48.6	74	40.7	1	3	248	0.00	29.822 
10:50	48.9	48.9	48.9	73	40.6	1	4	248	0.00	29.822 
10:55	49.4	49.4	49.4	72	40.8	1	4	248	0.00	29.822 
11:00	49.8	49.8	49.8	71	40.8	1	4	248	0.00	29.826 
11:05	49.9	49.9	49.9	70	40.5	2	5	248	0.00	29.826 
11:10	50.1	50.1	50.1	69	40.3	1	4	248	0.00	29.826 
11:15	50.2	50.2	50.2	69	40.4	1	3	248	0.00	29.820 
11:20	50.5	50.5	50.5	69	40.7	1	4	248	0.00	29.820 
11:25	50.8	50.8	50.8	69	41.0	1	3	248	0.00	29.820 
11:30	51.3	51.3	51.3	67	40.7	1	4	248	0.00	29.819 
11:35	51.7	51.7	51.7	67	41.1	1	4	248	0.00	29.819 
11:40	52.0	52.0	52.0	65	40.6	1	4	248	0.00	29.819 
11:45	52.2	52.2	52.2	65	40.8	1	5	248	0.00	29.820 
11:50	52.3	52.3	52.3	64	40.5	2	5	248	0.00	29.820 
11:55	52.8	52.8	52.8	65	41.4	1	3	248	0.00	29.820 
12:00	53.2	53.2	53.2	64	41.3	1	4	248	0.00	29.817 
12:05	53.8	53.8	53.8	62	41.1	1	5	248	0.00	29.817 
12:10	53.9	53.9	53.9	60	40.3	2	9	248	0.00	29.817 
12:15	54.2	54.2	54.2	59	40.2	1	5	248	0.00	29.819 
12:20	54.5	54.5	54.5	58	40.0	1	4	248	0.00	29.819 
12:25	54.7	54.7	54.7	57	39.8	1	4	248	0.00	29.819 
12:30	55.0	55.0	55.0	56	39.6	1	3	270	0.00	29.817 
12:35	55.0	55.0	55.0	55	39.1	1	3	270	0.00	29.817 
12:40	55.1	55.1	55.1	54	38.8	1	3	270	0.00	29.817 
12:45	55.4	55.4	55.4	54	39.0	1	4	248	0.00	29.819 
12:50	55.6	55.6	55.6	54	39.2	2	5	248	0.00	29.819 
12:55	55.9	55.9	55.9	53	39.0	1	5	248	0.00	29.819 
13:00	56.0	56.0	56.0	51	38.1	1	4	248	0.00	29.819 
13:05	56.3	56.3	56.3	50	37.9	2	4	248	0.00	29.819 
13:10	56.7	56.7	56.7	51	38.8	1	4	248	0.00	29.819 
13:15	56.9	56.9	56.9	50	38.5	1	3	248	0.00	29.822 
13:20	56.7	56.7	56.7	50	38.3	0	3	248	0.00	29.822 
13:25	56.7	56.7	56.7	50	38.3	0	3	248	0.00	29.822 
13:30	56.7	56.7	56.7	50	38.3	0	3	248	0.00	29.820 
13:35	56.7	56.7	56.7	49	37.8	1	3	248	0.00	29.820 
13:40	56.6	56.6	56.6	48	37.1	1	6	248	0.00	29.820 
13:45	56.7	56.7	56.7	50	38.3	0	2	248	0.00	29.830 
13:50	56.9	56.9	56.9	49	37.9	1	3	248	0.00	29.830 
13:55	56.9	56.9	56.9	50	38.5	0	2	248	0.00	29.830 
14:00	57.2	57.2	57.2	50	38.7	0	2	248	0.00	29.821 
14:05	57.5	57.5	57.5	48	38.0	1	3	248	0.00	29.821 
14:10	58.0	58.0	58.0	46	37.3	1	3	248	0.00	29.821 
14:15	58.3	58.3	58.3	45	37.1	0	2	248	0.00	29.815 
14:20	58.4	58.4	58.4	45	37.1	1	3	248	0.00	29.815 
14:25	58.4	58.4	58.4	44	36.6	0	2	248	0.00	29.815 
14:30	58.4	58.4	58.4	46	37.7	0	2	248	0.00	29.813 
14:35	58.6	58.6	58.6	44	36.8	0	3	248	0.00	29.813 
14:40	58.6	58.6	58.6	44	36.8	0	1	248	0.00	29.813 
14:45	58.3	58.3	58.3	44	36.5	0	1	248	0.00	29.816 
14:50	58.1	58.1	58.1	45	36.9	0	1	248	0.00	29.816 
14:55	58.1	58.1	58.1	45	36.9	0	2	248	0.00	29.816 
15:00	58.3	58.3	58.3	46	37.6	0	1	248	0.00	29.816 
15:05	58.4	58.4	58.4	46	37.7	0	2	248	0.00	29.816 
15:10	58.7	58.7	58.7	46	38.0	0	1	248	0.00	29.816 
15:15	58.7	58.7	58.7	46	38.0	0	2	248	0.00	29.816 
15:20	58.6	58.6	58.6	46	37.9	0	2	248	0.00	29.816 
15:25	58.4	58.4	58.4	46	37.7	0	2	248	0.00	29.816 
15:30	58.3	58.3	58.3	48	38.7	0	2	248	0.00	29.817 
15:35	58.1	58.1	58.1	48	38.5	0	1	248	0.00	29.817 
15:40	57.6	57.6	57.6	48	38.1	0	1	248	0.00	29.817 
15:45	57.3	57.3	57.3	48	37.8	0	1	248	0.00	29.820 
15:50	57.0	57.0	57.0	49	38.0	0	1	248	0.00	29.820 
15:55	57.0	57.0	57.0	50	38.5	0	1	248	0.00	29.820 
16:00	57.2	57.2	57.2	51	39.2	0	1	248	0.00	29.830 
16:05	57.2	57.2	57.2	51	39.2	0	1	248	0.00	29.830 
16:10	57.0	57.0	57.0	51	39.1	0	1	248	0.00	29.830 
16:15	56.9	56.9	56.9	51	39.0	0	1	248	0.00	29.836 
16:20	56.7	56.7	56.7	52	39.3	0	1	248	0.00	29.836 
16:25	56.6	56.6	56.6	52	39.2	0	1	248	0.00	29.836 
16:30	56.5	56.5	56.5	53	39.6	0	1	248	0.00	29.835 
16:35	56.5	56.5	56.5	53	39.6	0	0	---	0.00	29.835 
16:40	56.3	56.3	56.3	54	39.9	0	0	---	0.00	29.835 
16:45	56.2	56.2	56.2	55	40.2	0	1	248	0.00	29.840 
16:50	56.0	56.0	56.0	54	39.6	0	1	248	0.00	29.840 
16:55	55.9	55.9	55.9	55	40.0	0	0	---	0.00	29.840 
17:00	55.6	55.6	55.6	55	39.7	0	0	---	0.00	29.854 
17:05	55.3	55.3	55.3	56	39.9	0	0	---	0.00	29.854 
17:10	55.0	55.0	55.0	57	40.0	0	0	---	0.00	29.854 
17:15	54.5	54.5	54.5	58	40.0	0	0	---	0.00	29.851 
17:20	54.1	54.1	54.1	59	40.1	0	0	---	0.00	29.851 
17:25	53.5	53.5	53.5	59	39.5	0	0	---	0.00	29.851 
17:30	53.1	53.1	53.1	61	40.0	0	0	---	0.00	29.863 
17:35	52.5	52.5	52.5	62	39.9	0	0	---	0.00	29.863 
17:40	52.0	52.0	52.0	63	39.8	0	0	---	0.00	29.863 
17:45	51.7	51.7	51.7	64	39.9	0	0	---	0.00	29.870 
17:50	51.4	51.4	51.4	65	40.0	0	0	---	0.00	29.870 
17:55	51.1	51.1	51.1	65	39.7	0	0	---	0.00	29.870 
18:00	50.8	50.8	50.8	66	39.9	0	0	---	0.00	29.870 
18:05	50.7	50.7	50.7	67	40.1	0	0	---	0.00	29.870 
18:10	50.7	50.7	50.7	67	40.1	0	1	248	0.00	29.870 
18:15	50.8	50.8	50.8	67	40.2	0	1	248	0.00	29.875 
18:20	50.8	50.8	50.8	67	40.2	0	0	---	0.00	29.875 
18:25	51.0	51.0	51.0	68	40.8	0	0	---	0.00	29.875 
18:30	51.0	51.0	51.0	69	41.2	0	0	---	0.00	29.881 
18:35	50.8	50.8	50.8	69	41.0	0	0	---	0.00	29.881 
18:40	50.8	50.8	50.8	70	41.4	0	1	248	0.00	29.881 
18:45	51.1	51.1	51.1	73	42.7	0	1	248	0.00	29.883 
18:50	51.6	51.6	51.6	74	43.6	0	1	248	0.00	29.883 
18:55	51.6	51.6	51.6	75	43.9	0	1	248	0.00	29.883 
19:00	51.7	51.7	51.7	76	44.4	0	0	---	0.00	29.884 
19:05	51.6	51.6	51.6	77	44.6	0	0	---	0.00	29.884 
19:10	51.4	51.4	51.4	78	44.8	0	0	---	0.00	29.884 
19:15	51.3	51.3	51.3	79	45.0	0	0	---	0.00	29.882 
19:20	51.3	51.3	51.3	80	45.3	0	0	---	0.00	29.882 
19:25	51.3	51.3	51.3	81	45.7	0	1	248	0.00	29.882 
19:30	51.4	51.4	51.4	81	45.8	0	0	---	0.00	29.885 
19:35	51.6	51.6	51.6	82	46.3	0	0	---	0.00	29.885 
19:40	51.7	51.7	51.7	82	46.4	0	1	248	0.00	29.885 
19:45	51.9	51.9	51.9	83	46.9	0	0	---	0.00	29.893 
19:50	51.9	51.9	51.9	83	46.9	0	0	---	0.00	29.893 
19:55	52.0	52.0	52.0	83	47.0	0	0	---	0.00	29.893 
20:00	52.0	52.0	52.0	84	47.3	0	0	---	0.00	29.891 
20:05	52.0	52.0	52.0	84	47.3	0	0	---	0.00	29.891 
20:10	52.2	52.2	52.2	84	47.5	0	0	---	0.00	29.891 
20:15	52.2	52.2	52.2	84	47.5	0	0	---	0.00	29.896 
20:20	52.2	52.2	52.2	85	47.8	0	1	248	0.00	29.896 
20:25	52.2	52.2	52.2	85	47.8	0	1	248	0.00	29.896 
20:30	52.2	52.2	52.2	85	47.8	0	0	---	0.00	29.886 
20:35	52.2	52.2	52.2	86	48.1	0	1	248	0.00	29.886 
20:40	52.3	52.3	52.3	86	48.2	0	1	248	0.00	29.886 
20:45	52.3	52.3	52.3	86	48.2	0	1	248	0.00	29.897 
20:50	52.5	52.5	52.5	87	48.7	0	2	248	0.00	29.897 
20:55	52.6	52.6	52.6	87	48.8	0	1	248	0.00	29.897 
21:00	52.6	52.6	52.6	87	48.8	0	2	248	0.00	29.897 
21:05	52.6	52.6	52.6	87	48.8	0	1	248	0.00	29.897 
21:10	52.6	52.6	52.6	87	48.8	0	1	248	0.00	29.897 
21:15	52.6	52.6	52.6	87	48.8	0	0	---	0.00	29.889 
21:20	52.6	52.6	52.6	88	49.1	0	1	248	0.00	29.889 
21:25	52.8	52.8	52.8	88	49.3	0	1	248	0.00	29.889 
21:30	52.8	52.8	52.8	88	49.3	0	1	248	0.00	29.882 
21:35	52.8	52.8	52.8	88	49.3	0	1	248	0.00	29.882 
21:40	52.8	52.8	52.8	88	49.3	0	0	---	0.00	29.882 
21:45	52.8	52.8	52.8	88	49.3	0	1	248	0.00	29.881 
21:50	52.9	52.9	52.9	88	49.4	0	1	248	0.00	29.881 
21:55	52.9	52.9	52.9	88	49.4	0	2	248	0.00	29.881 
22:00	53.1	53.1	53.1	88	49.6	0	1	248	0.00	29.881 
22:05	53.1	53.1	53.1	88	49.6	0	1	248	0.00	29.881 
22:10	53.2	53.2	53.2	88	49.7	0	1	248	0.00	29.881 
22:15	53.2	53.2	53.2	88	49.7	0	1	248	0.00	29.878 
22:20	53.3	53.3	53.3	88	49.8	0	1	248	0.00	29.878 
22:25	53.3	53.3	53.3	88	49.8	0	1	248	0.00	29.878 
22:30	53.5	53.5	53.5	88	50.0	0	1	248	0.00	29.874 
22:35	53.5	53.5	53.5	88	50.0	0	1	248	0.00	29.874 
22:40	53.6	53.6	53.6	89	50.4	0	2	248	0.00	29.874 
22:45	53.6	53.6	53.6	89	50.4	0	1	248	0.00	29.868 
22:50	53.6	53.6	53.6	89	50.4	0	1	248	0.00	29.868 
22:55	53.6	53.6	53.6	89	50.4	0	1	248	0.00	29.868 
23:00	53.6	53.6	53.6	89	50.4	0	1	248	0.00	29.861 
23:05	53.6	53.6	53.6	89	50.4	0	1	248	0.00	29.861 
23:10	53.6	53.6	53.6	89	50.4	0	2	248	0.00	29.861 
23:15	53.6	53.6	53.6	89	50.4	0	1	248	0.00	29.867 
23:20	53.6	53.6	53.6	89	50.4	0	1	248	0.00	29.867 
23:25	53.6	53.6	53.6	89	50.4	1	2	248	0.00	29.867 
23:30	53.6	53.6	53.6	89	50.4	0	2	248	0.00	29.858 
23:35	53.6	53.6	53.6	90	50.7	0	1	248	0.00	29.858 
23:40	53.8	53.8	53.8	90	50.9	0	1	248	0.00	29.858 
23:45	53.8	53.8	53.8	90	50.9	0	1	248	0.00	29.862 
23:50	53.6	53.6	53.6	90	50.7	0	1	248	0.00	29.862 
23:55	53.5	53.5	53.5	90	50.6	0	0	---	0.00	29.862 

CoCoRaHS
IN-AL-39
A2 Web Hosting
Creative Commons License
GoDaddy
search engine by freefind advanced

loaded 2018-11-13 22:04:19 • last modified 2010-11-18 10:43:29
Privacy PolicyDisclaimer
• wx.awcolley.com is powered by PmWiki v.2002016 •
• all content (unless otherwise noted) © 2018 A W Colley